Terminal Aerodrome Forecast
Issued by NWS Atlanta, GA

Home | Current Version | Previous Version | Text Only | Print | Product List | Glossary On
Versions: 1 2 3 4 5 6 7 8 9 10 11 12 13 14 15 16 17 18 19 20 21 22 23 24 25 26 27 28 29 30 31 32 33 34 35
000
FTUS42 KFFC 311744 CCA
TAFAHN
TAF COR
KAHN 311744Z 3118/0118 09007KT P6SM BKN050
     FM312100 06006KT P6SM BKN050
     FM010000 03003KT P6SM FEW250
     FM011500 05004KT P6SM FEW040=

USA.gov is the U.S. government's official web portal to all federal, state and local government web resources and services.